createdAt,value
2022-09-07T00:00:07.044Z,1012.73
2022-09-07T00:01:07.080Z,1012.68
2022-09-07T00:02:07.115Z,1012.67
2022-09-07T00:03:07.261Z,1012.67
2022-09-07T00:04:07.214Z,1012.66
2022-09-07T00:05:07.226Z,1012.66
2022-09-07T00:06:07.264Z,1012.65
2022-09-07T00:07:07.303Z,1012.67
2022-09-07T00:08:07.340Z,1012.70
2022-09-07T00:09:07.375Z,1012.69
2022-09-07T00:10:07.411Z,1012.68
2022-09-07T00:11:07.447Z,1012.65
2022-09-07T00:12:07.484Z,1012.60
2022-09-07T00:13:07.524Z,1012.53
2022-09-07T00:14:07.556Z,1012.52
2022-09-07T00:15:07.594Z,1012.50
2022-09-07T00:16:07.702Z,1012.52
2022-09-07T00:17:07.668Z,1012.52
2022-09-07T00:18:07.748Z,1012.55
2022-09-07T00:19:07.753Z,1012.55
2022-09-07T00:20:07.775Z,1012.54
2022-09-07T00:21:07.815Z,1012.54
2022-09-07T00:22:07.852Z,1012.48
2022-09-07T00:23:07.889Z,1012.49
2022-09-07T00:24:07.922Z,1012.41
2022-09-07T00:25:07.959Z,1012.40
2022-09-07T00:26:07.995Z,1012.38
2022-09-07T00:27:08.035Z,1012.43
2022-09-07T00:28:08.069Z,1012.40
2022-09-07T00:29:08.115Z,1012.47
2022-09-07T00:30:08.142Z,1012.48
2022-09-07T00:31:08.228Z,1012.49
2022-09-07T00:32:08.216Z,1012.49
2022-09-07T00:33:08.263Z,1012.43
2022-09-07T00:34:08.289Z,1012.47
2022-09-07T00:35:08.336Z,1012.49
2022-09-07T00:36:08.362Z,1012.50
2022-09-07T00:37:08.397Z,1012.50
2022-09-07T00:38:08.434Z,1012.56
2022-09-07T00:39:08.473Z,1012.55
2022-09-07T00:40:08.570Z,1012.56
2022-09-07T00:41:08.549Z,1012.52
2022-09-07T00:42:08.582Z,1012.50
2022-09-07T00:43:08.619Z,1012.51
2022-09-07T00:44:08.654Z,1012.49
2022-09-07T00:45:08.690Z,1012.51
2022-09-07T00:46:08.779Z,1012.48
2022-09-07T00:47:08.767Z,1012.46
2022-09-07T00:48:08.802Z,1012.46
2022-09-07T00:49:08.838Z,1012.49
2022-09-07T00:50:08.875Z,1012.48
2022-09-07T00:51:08.912Z,1012.46
2022-09-07T00:52:08.946Z,1012.46
2022-09-07T00:53:08.983Z,1012.46
2022-09-07T00:54:09.022Z,1012.43
2022-09-07T00:55:09.061Z,1012.41
2022-09-07T00:56:09.091Z,1012.43
2022-09-07T00:57:09.131Z,1012.42
2022-09-07T00:58:09.168Z,1012.42
2022-09-07T00:59:09.201Z,1012.44
2022-09-07T01:00:09.238Z,1012.41
2022-09-07T01:01:09.281Z,1012.43
2022-09-07T01:02:09.454Z,1012.43
2022-09-07T01:03:09.388Z,1012.43
2022-09-07T01:04:09.386Z,1012.44
2022-09-07T01:05:09.736Z,1012.43
2022-09-07T01:06:09.457Z,1012.45
2022-09-07T01:07:09.505Z,1012.42
2022-09-07T01:08:09.528Z,1012.42
2022-09-07T01:09:09.569Z,1012.42
2022-09-07T01:10:09.603Z,1012.39
2022-09-07T01:11:09.641Z,1012.39
2022-09-07T01:12:16.976Z,1012.34
2022-09-07T01:14:02.659Z,1012.34
2022-09-07T01:15:02.692Z,1012.31
2022-09-07T01:16:55.709Z,1012.30
2022-09-07T01:17:55.739Z,1012.34
2022-09-07T01:20:10.883Z,1012.34
2022-09-07T01:21:10.909Z,1012.29
2022-09-07T01:23:03.929Z,1012.32
2022-09-07T01:24:03.926Z,1012.33
2022-09-07T01:26:08.009Z,1012.32
2022-09-07T01:27:08.000Z,1012.33
2022-09-07T01:29:01.018Z,1012.32
2022-09-07T01:30:01.035Z,1012.27
2022-09-07T01:32:16.201Z,1012.26
2022-09-07T01:33:16.205Z,1012.22
2022-09-07T01:35:09.290Z,1012.23
2022-09-07T01:36:09.304Z,1012.21
2022-09-07T01:38:13.362Z,1012.27
2022-09-07T01:39:13.394Z,1012.26
2022-09-07T01:41:07.640Z,1012.29
2022-09-07T01:42:07.642Z,1012.29
2022-09-07T01:44:11.719Z,1012.31
2022-09-07T01:45:11.729Z,1012.26
2022-09-07T01:47:05.484Z,1012.20
2022-09-07T01:48:05.115Z,1012.19
2022-09-07T01:50:09.162Z,1012.17
2022-09-07T01:51:09.195Z,1012.12
2022-09-07T01:53:02.157Z,1012.12
2022-09-07T01:54:02.187Z,1012.13
2022-09-07T01:56:06.231Z,1012.16
2022-09-07T01:57:06.258Z,1012.15
2022-09-07T01:58:59.283Z,1012.12
2022-09-07T01:59:59.315Z,1012.12
2022-09-07T02:02:03.487Z,1012.11
2022-09-07T02:03:03.497Z,1012.15
2022-09-07T02:04:56.378Z,1012.18
2022-09-07T02:05:56.408Z,1012.13
2022-09-07T02:08:00.465Z,1012.14
2022-09-07T02:09:00.491Z,1012.12
2022-09-07T02:10:53.503Z,1012.04
2022-09-07T02:11:53.529Z,1012.03
2022-09-07T02:13:46.516Z,1012.04
2022-09-07T02:14:51.878Z,1012.06
2022-09-07T02:16:39.574Z,1012.08
2022-09-07T02:17:39.604Z,1012.08
2022-09-07T02:19:43.707Z,1012.10
2022-09-07T02:20:43.711Z,1012.10
2022-09-07T02:22:36.669Z,1012.09
2022-09-07T02:23:36.703Z,1012.08
2022-09-07T02:25:29.749Z,1012.04
2022-09-07T02:26:29.743Z,1012.02
2022-09-07T02:28:33.799Z,1012.06
2022-09-07T02:29:33.829Z,1012.09
2022-09-07T02:31:48.967Z,1012.08
2022-09-07T02:32:48.996Z,1012.07
2022-09-07T02:34:53.079Z,1012.01
2022-09-07T02:35:53.082Z,1012.00
2022-09-07T02:37:46.097Z,1012.01
2022-09-07T02:38:46.098Z,1012.04
2022-09-07T02:40:50.147Z,1012.06
2022-09-07T02:41:50.184Z,1012.06
2022-09-07T02:43:54.276Z,1012.04
2022-09-07T02:44:54.304Z,1012.04
2022-09-07T02:46:58.441Z,1012.06
2022-09-07T02:47:58.399Z,1012.08
2022-09-07T02:48:58.438Z,1012.10
2022-09-07T02:49:58.471Z,1012.07
2022-09-07T02:50:58.508Z,1012.03
2022-09-07T02:51:58.555Z,1012.01
2022-09-07T02:52:58.578Z,1012.02
2022-09-07T02:53:58.617Z,1011.93
2022-09-07T02:54:58.653Z,1011.92
2022-09-07T02:55:58.687Z,1011.88
2022-09-07T02:56:58.720Z,1011.87
2022-09-07T02:57:58.762Z,1011.87
2022-09-07T02:58:58.795Z,1011.86
2022-09-07T02:59:58.831Z,1011.90
2022-09-07T03:00:58.900Z,1011.87
2022-09-07T03:01:58.901Z,1011.86
2022-09-07T03:02:58.965Z,1011.88
2022-09-07T03:03:58.975Z,1011.86
2022-09-07T03:04:59.011Z,1011.88
2022-09-07T03:05:59.046Z,1011.91
2022-09-07T03:06:59.082Z,1011.94
2022-09-07T03:07:59.117Z,1011.96
2022-09-07T03:08:59.155Z,1011.99
2022-09-07T03:09:59.188Z,1011.95
2022-09-07T03:10:59.239Z,1011.93
2022-09-07T03:11:59.264Z,1011.94
2022-09-07T03:12:59.293Z,1011.91
2022-09-07T03:13:59.331Z,1011.90
2022-09-07T03:14:59.367Z,1011.85
2022-09-07T03:15:59.467Z,1011.86
2022-09-07T03:16:59.438Z,1011.83
2022-09-07T03:17:59.478Z,1011.83
2022-09-07T03:18:59.509Z,1011.86
2022-09-07T03:19:59.546Z,1011.87
2022-09-07T03:20:59.579Z,1011.90
2022-09-07T03:21:59.616Z,1011.93
2022-09-07T03:22:59.649Z,1011.90
2022-09-07T03:23:59.692Z,1011.96
2022-09-07T03:24:59.723Z,1011.96
2022-09-07T03:25:59.760Z,1011.94
2022-09-07T03:26:59.796Z,1011.98
2022-09-07T03:27:59.834Z,1011.95
2022-09-07T03:28:59.864Z,1011.90
2022-09-07T03:29:59.902Z,1011.92
2022-09-07T03:30:59.970Z,1011.94
2022-09-07T03:31:59.975Z,1011.93
2022-09-07T03:33:00.016Z,1011.92
2022-09-07T03:34:00.046Z,1011.91
2022-09-07T03:35:00.090Z,1011.92
2022-09-07T03:36:00.116Z,1011.94
2022-09-07T03:37:00.154Z,1011.92
2022-09-07T03:38:00.187Z,1011.93
2022-09-07T03:39:00.223Z,1011.92
2022-09-07T03:40:00.326Z,1011.90
2022-09-07T03:41:00.303Z,1011.85
2022-09-07T03:42:00.329Z,1011.83
2022-09-07T03:43:00.368Z,1011.85
2022-09-07T03:44:00.402Z,1011.79
2022-09-07T03:45:00.439Z,1011.77
2022-09-07T03:46:00.532Z,1011.74
2022-09-07T03:47:00.511Z,1011.73
2022-09-07T03:48:00.544Z,1011.78
2022-09-07T03:49:00.581Z,1011.76
2022-09-07T03:50:00.617Z,1011.75
2022-09-07T03:51:00.651Z,1011.73
2022-09-07T03:52:00.686Z,1011.70
2022-09-07T03:53:00.721Z,1011.67
2022-09-07T03:54:00.764Z,1011.66
2022-09-07T03:55:00.804Z,1011.59
2022-09-07T03:56:00.836Z,1011.59
2022-09-07T03:57:00.866Z,1011.55
2022-09-07T03:58:00.901Z,1011.53
2022-09-07T03:59:00.957Z,1011.51
2022-09-07T04:00:00.973Z,1011.49
2022-09-07T04:01:01.087Z,1011.53
2022-09-07T04:02:01.110Z,1011.49
2022-09-07T04:03:01.079Z,1011.46
2022-09-07T04:04:02.432Z,1011.45
2022-09-07T04:05:01.152Z,1011.40
2022-09-07T04:06:01.186Z,1011.36
2022-09-07T04:07:01.220Z,1011.40
2022-09-07T04:08:01.257Z,1011.37
2022-09-07T04:09:01.291Z,1011.38
2022-09-07T04:10:01.329Z,1011.40
2022-09-07T04:11:01.364Z,1011.37
2022-09-07T04:12:01.398Z,1011.37
2022-09-07T04:13:01.434Z,1011.35
2022-09-07T04:14:01.469Z,1011.37
2022-09-07T04:15:01.506Z,1011.41
2022-09-07T04:16:01.540Z,1011.38
2022-09-07T04:17:01.695Z,1011.39
2022-09-07T04:18:01.614Z,1011.42
2022-09-07T04:19:01.650Z,1011.37
2022-09-07T04:20:01.686Z,1011.35
2022-09-07T04:21:01.733Z,1011.37
2022-09-07T04:22:01.755Z,1011.37
2022-09-07T04:23:01.790Z,1011.36
2022-09-07T04:24:01.828Z,1011.35
2022-09-07T04:25:01.857Z,1011.35
2022-09-07T04:26:01.895Z,1011.35
2022-09-07T04:27:01.931Z,1011.31
2022-09-07T04:28:01.973Z,1011.33
2022-09-07T04:29:02.007Z,1011.34
2022-09-07T04:30:02.040Z,1011.35
2022-09-07T04:31:02.168Z,1011.34
2022-09-07T04:32:02.109Z,1011.33
2022-09-07T04:33:02.156Z,1011.35
2022-09-07T04:34:02.181Z,1011.32
2022-09-07T04:35:02.213Z,1011.34
2022-09-07T04:36:02.255Z,1011.38
2022-09-07T04:37:02.285Z,1011.32
2022-09-07T04:38:02.321Z,1011.37
2022-09-07T04:39:02.357Z,1011.38
2022-09-07T04:40:02.492Z,1011.39
2022-09-07T04:41:02.429Z,1011.36
2022-09-07T04:42:02.465Z,1011.40
2022-09-07T04:43:02.498Z,1011.37
2022-09-07T04:44:02.538Z,1011.34
2022-09-07T04:45:02.570Z,1011.39
2022-09-07T04:46:02.697Z,1011.41
2022-09-07T04:47:02.641Z,1011.39
2022-09-07T04:48:02.679Z,1011.39
2022-09-07T04:49:02.731Z,1011.41
2022-09-07T04:50:02.754Z,1011.38
2022-09-07T04:51:05.696Z,1011.37
2022-09-07T04:52:02.818Z,1011.37
2022-09-07T04:53:02.852Z,1011.38
2022-09-07T04:54:02.896Z,1011.35
2022-09-07T04:55:02.923Z,1011.35
2022-09-07T04:56:02.960Z,1011.40
2022-09-07T04:57:02.998Z,1011.37
2022-09-07T04:58:03.035Z,1011.35
2022-09-07T04:59:03.068Z,1011.40
2022-09-07T05:00:03.109Z,1011.36
2022-09-07T05:01:03.220Z,1011.40
2022-09-07T05:02:03.239Z,1011.34
2022-09-07T05:03:03.209Z,1011.35
2022-09-07T05:04:03.244Z,1011.33
2022-09-07T05:05:03.276Z,1011.32
2022-09-07T05:06:03.318Z,1011.33
2022-09-07T05:07:03.349Z,1011.31
2022-09-07T05:08:03.386Z,1011.27
2022-09-07T05:09:03.420Z,1011.24
2022-09-07T05:10:03.457Z,1011.25
2022-09-07T05:11:03.492Z,1011.25
2022-09-07T05:12:03.526Z,1011.19
2022-09-07T05:13:03.560Z,1011.23
2022-09-07T05:14:03.602Z,1011.22
2022-09-07T05:15:03.634Z,1011.23
2022-09-07T05:16:03.677Z,1011.29
2022-09-07T05:17:03.738Z,1011.28
2022-09-07T05:18:03.739Z,1011.28
2022-09-07T05:19:03.772Z,1011.35
2022-09-07T05:20:03.811Z,1011.33
2022-09-07T05:21:03.846Z,1011.33
2022-09-07T05:22:03.882Z,1011.35
2022-09-07T05:23:03.915Z,1011.30
2022-09-07T05:24:03.951Z,1011.34
2022-09-07T05:25:03.987Z,1011.31
2022-09-07T05:26:04.022Z,1011.32
2022-09-07T05:27:04.057Z,1011.28
2022-09-07T05:28:04.094Z,1011.31
2022-09-07T05:30:05.123Z,1011.26
2022-09-07T05:31:20.247Z,1011.25
2022-09-07T05:32:04.235Z,1011.24
2022-09-07T05:33:04.272Z,1011.25
2022-09-07T05:35:04.342Z,1011.18
2022-09-07T05:36:04.382Z,1011.15
2022-09-07T05:37:04.413Z,1011.19
2022-09-07T05:38:04.447Z,1011.16
2022-09-07T05:39:04.482Z,1011.16
2022-09-07T05:40:04.611Z,1011.17
2022-09-07T05:41:04.554Z,1011.17
2022-09-07T05:42:04.591Z,1011.18
2022-09-07T05:43:04.624Z,1011.21
2022-09-07T05:45:04.719Z,1011.19
2022-09-07T05:46:04.769Z,1011.23
2022-09-07T05:47:04.764Z,1011.26
2022-09-07T05:48:04.804Z,1011.29
2022-09-07T05:49:04.836Z,1011.29
2022-09-07T05:50:04.873Z,1011.29
2022-09-07T05:51:04.909Z,1011.25
2022-09-07T05:52:04.946Z,1011.28
2022-09-07T05:53:04.978Z,1011.27
2022-09-07T05:54:05.016Z,1011.30
2022-09-07T05:55:28.157Z,1011.31
2022-09-07T05:56:07.130Z,1011.32
2022-09-07T05:57:05.118Z,1011.29
2022-09-07T05:58:05.157Z,1011.24
2022-09-07T05:59:05.190Z,1011.28
2022-09-07T06:00:05.227Z,1011.26
2022-09-07T06:01:05.262Z,1011.31
2022-09-07T06:02:05.441Z,1011.29
2022-09-07T06:03:05.350Z,1011.27
2022-09-07T06:04:05.369Z,1011.30
2022-09-07T06:05:05.404Z,1011.28
2022-09-07T06:06:05.440Z,1011.29
2022-09-07T06:07:21.004Z,1011.21
2022-09-07T06:08:05.510Z,1011.24
2022-09-07T06:09:05.545Z,1011.21
2022-09-07T06:11:05.620Z,1011.25
2022-09-07T06:12:05.655Z,1011.27
2022-09-07T06:13:05.690Z,1011.27
2022-09-07T06:14:05.723Z,1011.30
2022-09-07T06:15:05.759Z,1011.28
2022-09-07T06:16:05.818Z,1011.27
2022-09-07T06:17:05.828Z,1011.28
2022-09-07T06:18:05.869Z,1011.33
2022-09-07T06:19:05.903Z,1011.28
2022-09-07T06:20:05.939Z,1011.31
2022-09-07T06:21:05.969Z,1011.35
2022-09-07T06:22:06.010Z,1011.30
2022-09-07T06:23:06.043Z,1011.33
2022-09-07T06:24:06.081Z,1011.33
2022-09-07T06:25:06.116Z,1011.33
2022-09-07T06:26:06.154Z,1011.36
2022-09-07T06:27:06.184Z,1011.35
2022-09-07T06:28:06.223Z,1011.36
2022-09-07T06:29:06.256Z,1011.30
2022-09-07T06:30:06.291Z,1011.28
2022-09-07T06:31:06.326Z,1011.26
2022-09-07T06:33:06.399Z,1011.27
2022-09-07T06:34:06.434Z,1011.25
2022-09-07T06:35:06.469Z,1011.25
2022-09-07T06:36:06.506Z,1011.24
2022-09-07T06:37:06.541Z,1011.22
2022-09-07T06:38:06.577Z,1011.20
2022-09-07T06:39:06.615Z,1011.24
2022-09-07T06:40:06.713Z,1011.24
2022-09-07T06:42:06.721Z,1011.26
2022-09-07T06:43:06.756Z,1011.28
2022-09-07T06:44:06.799Z,1011.27
2022-09-07T06:45:06.831Z,1011.23
2022-09-07T06:47:06.899Z,1011.25
2022-09-07T06:48:06.934Z,1011.24
2022-09-07T06:49:06.969Z,1011.27
2022-09-07T06:50:07.005Z,1011.28
2022-09-07T06:51:07.049Z,1011.32
2022-09-07T06:52:07.079Z,1011.33
2022-09-07T06:55:07.183Z,1011.35
2022-09-07T06:56:07.222Z,1011.36
2022-09-07T06:57:07.257Z,1011.36
2022-09-07T06:58:07.299Z,1011.35
2022-09-07T06:59:07.327Z,1011.31
2022-09-07T07:00:07.365Z,1011.35
2022-09-07T07:01:07.434Z,1011.29
2022-09-07T07:02:07.442Z,1011.27
2022-09-07T07:03:07.522Z,1011.23
2022-09-07T07:04:07.509Z,1011.19
2022-09-07T07:05:07.543Z,1011.18
2022-09-07T07:06:07.583Z,1011.09
2022-09-07T07:07:07.615Z,1011.07
2022-09-07T07:08:07.652Z,1011.08
2022-09-07T07:09:07.688Z,1011.01
2022-09-07T07:10:07.721Z,1011.02
2022-09-07T07:11:07.760Z,1011.04
2022-09-07T07:14:11.889Z,1011.02
2022-09-07T07:15:11.876Z,1011.04
2022-09-07T07:17:15.931Z,1011.04
2022-09-07T07:18:21.279Z,1011.04
2022-09-07T07:20:20.042Z,1011.07
2022-09-07T07:21:20.043Z,1011.07
2022-09-07T07:23:24.099Z,1011.04
2022-09-07T07:24:24.130Z,1011.03
2022-09-07T07:26:28.211Z,1011.01
2022-09-07T07:27:28.211Z,1011.00
2022-09-07T07:29:32.271Z,1010.99
2022-09-07T07:30:32.317Z,1010.96
2022-09-07T07:32:36.416Z,1010.87
2022-09-07T07:33:36.452Z,1010.87
2022-09-07T07:35:29.444Z,1010.86
2022-09-07T07:36:29.447Z,1010.86
2022-09-07T07:39:03.596Z,1010.94
2022-09-07T07:42:37.613Z,1011.00
2022-09-07T07:44:41.666Z,1011.03
2022-09-07T07:45:57.825Z,1011.07
2022-09-07T07:47:45.753Z,1011.09
2022-09-07T07:48:45.788Z,1011.09
2022-09-07T07:50:49.908Z,1011.04
2022-09-07T07:53:54.197Z,1011.04
2022-09-07T07:54:53.969Z,1011.02
2022-09-07T07:56:58.041Z,1010.97
2022-09-07T07:57:58.041Z,1010.97
2022-09-07T08:00:02.097Z,1010.97
2022-09-07T08:01:02.269Z,1010.96
2022-09-07T08:03:06.182Z,1010.93
2022-09-07T08:04:06.218Z,1010.94
2022-09-07T08:06:10.327Z,1010.92
2022-09-07T08:07:11.304Z,1010.87
2022-09-07T08:09:14.354Z,1010.88
2022-09-07T08:10:14.436Z,1010.90
2022-09-07T08:12:18.471Z,1010.88
2022-09-07T08:13:18.472Z,1010.89
2022-09-07T08:15:11.460Z,1010.91
2022-09-07T08:16:11.549Z,1010.91
2022-09-07T08:18:15.561Z,1010.89
2022-09-07T08:19:15.566Z,1010.88
2022-09-07T08:21:19.618Z,1010.96
2022-09-07T08:22:19.659Z,1010.96
2022-09-07T08:24:23.701Z,1010.94
2022-09-07T08:25:23.735Z,1011.01
2022-09-07T08:27:16.767Z,1011.01
2022-09-07T08:28:16.765Z,1011.01
2022-09-07T08:30:20.833Z,1011.01
2022-09-07T08:31:20.899Z,1011.00
2022-09-07T08:33:24.905Z,1011.00
2022-09-07T08:34:24.933Z,1010.97
2022-09-07T08:36:28.992Z,1010.94
2022-09-07T08:37:29.020Z,1010.95
2022-09-07T08:39:33.184Z,1011.01
2022-09-07T08:40:33.125Z,1010.94
2022-09-07T08:42:37.179Z,1010.95
2022-09-07T08:43:37.211Z,1010.94
2022-09-07T08:45:30.186Z,1010.97
2022-09-07T08:46:30.287Z,1010.94
2022-09-07T08:48:34.265Z,1010.87
2022-09-07T08:49:34.297Z,1010.88
2022-09-07T08:51:38.350Z,1010.79
2022-09-07T08:52:38.392Z,1010.80
2022-09-07T08:54:42.458Z,1010.71
2022-09-07T08:55:42.460Z,1010.74
2022-09-07T08:57:46.572Z,1010.71
2022-09-07T08:58:50.292Z,1010.68
2022-09-07T09:00:50.771Z,1010.69
2022-09-07T09:06:48.118Z,1010.66
2022-09-07T09:07:47.926Z,1010.62
2022-09-07T09:09:52.013Z,1010.61
2022-09-07T09:10:52.016Z,1010.58
2022-09-07T09:12:56.115Z,1010.61
2022-09-07T09:13:56.137Z,1010.59
2022-09-07T09:15:49.192Z,1010.60
2022-09-07T09:16:49.140Z,1010.58
2022-09-07T09:18:53.198Z,1010.58
2022-09-07T09:19:53.232Z,1010.59
2022-09-07T09:21:57.378Z,1010.64
2022-09-07T09:22:57.319Z,1010.62
2022-09-07T09:25:01.403Z,1010.69
2022-09-07T09:26:01.412Z,1010.68
2022-09-07T09:28:05.469Z,1010.72
2022-09-07T09:29:05.501Z,1010.71
2022-09-07T09:30:58.557Z,1010.71
2022-09-07T09:31:58.551Z,1010.68
2022-09-07T09:34:02.657Z,1010.70
2022-09-07T09:35:02.700Z,1010.72
2022-09-07T09:37:06.788Z,1010.67
2022-09-07T09:38:06.812Z,1010.66
2022-09-07T09:40:10.902Z,1010.66
2022-09-07T09:41:10.904Z,1010.62
2022-09-07T09:43:14.961Z,1010.53
2022-09-07T09:44:14.993Z,1010.54
2022-09-07T09:46:19.195Z,1010.47
2022-09-07T09:47:34.586Z,1010.49
2022-09-07T09:49:23.135Z,1010.46
2022-09-07T09:52:29.607Z,1010.45
2022-09-07T09:53:27.258Z,1010.44
2022-09-07T09:55:36.390Z,1010.42
2022-09-07T09:56:20.262Z,1010.46
2022-09-07T10:01:22.009Z,1010.49
2022-09-07T10:04:24.672Z,1010.44
2022-09-07T10:05:21.642Z,1010.43
2022-09-07T10:07:25.722Z,1010.45
2022-09-07T10:08:25.802Z,1010.44
2022-09-07T10:10:29.781Z,1010.37
2022-09-07T10:12:05.074Z,1010.34
2022-09-07T10:13:33.874Z,1010.36
2022-09-07T10:14:33.901Z,1010.35
2022-09-07T10:16:37.990Z,1010.31
2022-09-07T10:17:37.995Z,1010.34
2022-09-07T10:19:42.051Z,1010.32
2022-09-07T10:20:42.096Z,1010.27
2022-09-07T10:22:49.663Z,1010.19
2022-09-07T10:23:46.197Z,1010.18
2022-09-07T10:25:39.170Z,1010.17
2022-09-07T10:26:39.204Z,1010.16
2022-09-07T10:29:43.301Z,1010.12
2022-09-07T10:31:47.365Z,1010.12
2022-09-07T10:32:47.391Z,1010.16
2022-09-07T10:34:51.544Z,1010.13
2022-09-07T10:35:51.571Z,1010.11
2022-09-07T10:37:56.452Z,1010.06
2022-09-07T10:38:55.655Z,1010.00
2022-09-07T10:40:59.715Z,1010.05
2022-09-07T10:41:59.789Z,1010.05
2022-09-07T10:44:03.838Z,1010.10
2022-09-07T10:45:03.844Z,1010.07
2022-09-07T10:47:08.004Z,1010.12
2022-09-07T10:48:07.937Z,1010.10
2022-09-07T10:50:27.407Z,1010.21
2022-09-07T10:51:14.227Z,1010.12
2022-09-07T10:53:39.404Z,1010.13
2022-09-07T10:54:31.897Z,1010.13
2022-09-07T10:56:20.248Z,1010.09
2022-09-07T10:57:20.251Z,1010.06
2022-09-07T10:59:24.658Z,1010.08
2022-09-07T11:00:24.342Z,1010.08
2022-09-07T11:02:28.466Z,1010.04
2022-09-07T11:03:28.523Z,1010.03
2022-09-07T11:05:21.424Z,1010.05
2022-09-07T11:06:21.447Z,1009.97
2022-09-07T11:08:25.555Z,1009.94
2022-09-07T11:09:25.601Z,1009.93
2022-09-07T11:12:29.645Z,1009.87
2022-09-07T11:14:33.733Z,1009.90
2022-09-07T11:15:33.781Z,1009.87
2022-09-07T11:17:37.800Z,1009.89
2022-09-07T11:18:37.839Z,1009.91
2022-09-07T11:20:41.897Z,1009.87
2022-09-07T11:21:57.324Z,1009.91
2022-09-07T11:23:45.994Z,1009.94
2022-09-07T11:24:46.258Z,1010.01
2022-09-07T11:26:50.142Z,1010.04
2022-09-07T11:27:50.128Z,1010.03
2022-09-07T11:29:54.225Z,1010.04
2022-09-07T11:30:59.171Z,1010.00
2022-09-07T11:32:58.305Z,1010.00
2022-09-07T11:35:51.356Z,1009.99
2022-09-07T11:36:51.363Z,1009.98
2022-09-07T11:38:55.417Z,1009.99
2022-09-07T11:39:55.564Z,1010.04
2022-09-07T11:41:59.789Z,1010.05
2022-09-07T11:42:59.563Z,1010.02
2022-09-07T11:45:03.611Z,1010.03
2022-09-07T11:46:03.674Z,1009.95
2022-09-07T11:47:56.721Z,1009.89
2022-09-07T11:48:56.725Z,1009.87
2022-09-07T11:51:00.801Z,1009.88
2022-09-07T11:52:04.986Z,1009.87
2022-09-07T11:54:05.008Z,1009.86
2022-09-07T11:55:05.012Z,1009.84
2022-09-07T11:57:09.074Z,1009.94
2022-09-07T11:58:09.110Z,1009.94
2022-09-07T12:00:13.202Z,1009.95
2022-09-07T12:01:13.209Z,1009.99
2022-09-07T12:03:20.931Z,1010.01
2022-09-07T12:04:17.359Z,1009.98
2022-09-07T12:06:21.400Z,1009.98
2022-09-07T12:07:21.406Z,1010.03
2022-09-07T12:09:25.463Z,1009.95
2022-09-07T12:10:25.500Z,1009.94
2022-09-07T12:12:29.581Z,1009.95
2022-09-07T12:13:29.587Z,1009.90
2022-09-07T12:15:22.597Z,1009.87
2022-09-07T12:16:22.672Z,1009.87
2022-09-07T12:18:26.699Z,1009.85
2022-09-07T12:19:26.706Z,1009.83
2022-09-07T12:21:30.800Z,1009.80
2022-09-07T12:22:30.806Z,1009.81
2022-09-07T12:24:34.884Z,1009.79
2022-09-07T12:25:34.960Z,1009.76
2022-09-07T12:27:38.969Z,1009.73
2022-09-07T12:28:39.004Z,1009.73
2022-09-07T12:30:43.131Z,1009.66
2022-09-07T12:32:00.672Z,1009.67
2022-09-07T12:33:47.165Z,1009.64
2022-09-07T12:34:47.197Z,1009.68
2022-09-07T12:36:40.182Z,1009.67
2022-09-07T12:37:40.225Z,1009.66
2022-09-07T12:39:55.373Z,1009.64
2022-09-07T12:40:55.386Z,1009.67
2022-09-07T12:42:48.358Z,1009.62
2022-09-07T12:43:48.392Z,1009.63
2022-09-07T12:45:52.565Z,1009.59
2022-09-07T12:46:52.530Z,1009.57
2022-09-07T12:48:56.595Z,1009.53
2022-09-07T12:49:56.628Z,1009.53
2022-09-07T12:52:06.868Z,1009.48
2022-09-07T12:53:00.733Z,1009.51
2022-09-07T12:55:16.358Z,1009.43
2022-09-07T12:57:45.864Z,1009.39
2022-09-07T12:58:45.898Z,1009.38
2022-09-07T13:00:49.036Z,1009.38
2022-09-07T13:01:49.171Z,1009.36
2022-09-07T13:03:52.542Z,1009.37
2022-09-07T13:04:52.845Z,1009.36
2022-09-07T13:07:03.759Z,1009.38
2022-09-07T13:08:04.311Z,1009.37
2022-09-07T13:10:00.411Z,1009.38
2022-09-07T13:11:00.444Z,1009.40
2022-09-07T13:12:53.996Z,1009.40
2022-09-07T13:14:09.700Z,1009.43
2022-09-07T13:15:46.496Z,1009.42
2022-09-07T13:18:50.618Z,1009.39
2022-09-07T13:19:50.618Z,1009.38
2022-09-07T13:21:43.801Z,1009.37
2022-09-07T13:22:43.839Z,1009.34
2022-09-07T13:24:53.328Z,1009.37
2022-09-07T13:25:38.097Z,1009.38
2022-09-07T13:27:31.304Z,1009.39
2022-09-07T13:28:31.399Z,1009.40
2022-09-07T13:30:24.484Z,1009.41
2022-09-07T13:31:24.546Z,1009.38
2022-09-07T13:33:17.694Z,1009.31
2022-09-07T13:34:17.727Z,1009.26
2022-09-07T13:36:10.934Z,1009.25
2022-09-07T13:37:10.937Z,1009.22
2022-09-07T13:39:15.041Z,1009.21
2022-09-07T13:40:15.112Z,1009.22
2022-09-07T13:42:08.250Z,1009.16
2022-09-07T13:43:08.254Z,1009.16
2022-09-07T13:45:01.613Z,1009.16
2022-09-07T13:46:01.641Z,1009.17
2022-09-07T13:47:54.643Z,1009.18
2022-09-07T13:48:54.678Z,1009.18
2022-09-07T13:50:58.759Z,1009.17
2022-09-07T13:51:58.790Z,1009.23
2022-09-07T13:53:51.966Z,1009.22
2022-09-07T13:54:51.999Z,1009.21
2022-09-07T13:56:45.243Z,1009.23
2022-09-07T13:57:45.205Z,1009.19
2022-09-07T13:59:38.375Z,1009.14
2022-09-07T14:00:38.411Z,1009.13
2022-09-07T14:02:31.695Z,1009.15
2022-09-07T14:03:31.713Z,1009.13
2022-09-07T14:05:24.658Z,1009.18
2022-09-07T14:06:24.658Z,1009.17
2022-09-07T14:08:17.838Z,1009.17
2022-09-07T14:09:17.871Z,1009.16
2022-09-07T14:11:11.076Z,1009.14
2022-09-07T14:12:11.082Z,1009.14
2022-09-07T14:14:04.279Z,1009.11
2022-09-07T14:15:08.796Z,1009.12
2022-09-07T14:16:57.628Z,1009.07
2022-09-07T14:17:57.536Z,1009.10
2022-09-07T14:19:50.735Z,1009.05
2022-09-07T14:20:50.767Z,1009.06
2022-09-07T14:22:43.893Z,1009.02
2022-09-07T14:23:43.923Z,1009.05
2022-09-07T14:26:15.940Z,1009.01
2022-09-07T14:26:36.960Z,1009.00
2022-09-07T14:28:30.132Z,1008.96
2022-09-07T14:29:30.185Z,1009.01
2022-09-07T14:31:23.424Z,1008.95
2022-09-07T14:32:23.385Z,1008.97
2022-09-07T14:34:16.565Z,1008.96
2022-09-07T14:35:16.597Z,1008.95
2022-09-07T14:37:09.812Z,1009.01
2022-09-07T14:38:09.853Z,1008.94
2022-09-07T14:40:03.046Z,1008.96
2022-09-07T14:41:03.064Z,1008.96
2022-09-07T14:42:56.252Z,1008.95
2022-09-07T14:43:56.226Z,1008.92
2022-09-07T14:45:49.614Z,1008.94
2022-09-07T14:46:54.622Z,1008.91
2022-09-07T14:48:42.867Z,1008.91
2022-09-07T14:49:43.737Z,1008.91
2022-09-07T14:51:36.827Z,1008.94
2022-09-07T14:52:40.507Z,1008.92
2022-09-07T14:54:28.860Z,1008.95
2022-09-07T14:55:28.934Z,1008.92
2022-09-07T14:57:22.069Z,1008.96
2022-09-07T14:58:22.145Z,1008.97
2022-09-07T15:00:15.323Z,1009.01
2022-09-07T15:03:08.563Z,1009.01
2022-09-07T15:04:08.615Z,1009.04
2022-09-07T15:06:01.704Z,1009.04
2022-09-07T15:07:02.209Z,1009.03
2022-09-07T15:08:54.916Z,1009.01
2022-09-07T15:09:55.031Z,1008.98
2022-09-07T15:11:48.130Z,1008.99
2022-09-07T15:12:48.162Z,1008.99
2022-09-07T15:14:41.337Z,1008.95
2022-09-07T15:15:41.401Z,1008.90
2022-09-07T15:17:49.997Z,1008.87
2022-09-07T15:18:34.583Z,1008.84
2022-09-07T15:20:38.803Z,1008.77
2022-09-07T15:21:39.641Z,1008.76
2022-09-07T15:23:42.789Z,1008.77
2022-09-07T15:24:42.824Z,1008.77
2022-09-07T15:27:02.991Z,1008.80
2022-09-07T15:27:46.933Z,1008.79
2022-09-07T15:29:51.064Z,1008.80
2022-09-07T15:31:40.488Z,1008.81
2022-09-07T15:32:54.382Z,1008.81
2022-09-07T15:33:54.396Z,1008.83
2022-09-07T15:35:47.399Z,1008.80
2022-09-07T15:36:48.564Z,1008.80
2022-09-07T15:39:40.697Z,1008.75
2022-09-07T15:41:34.870Z,1008.71
2022-09-07T15:44:28.400Z,1008.70
2022-09-07T15:45:27.125Z,1008.67
2022-09-07T15:48:20.342Z,1008.68
2022-09-07T15:50:13.550Z,1008.70
2022-09-07T15:53:07.097Z,1008.65
2022-09-07T15:54:11.627Z,1008.62
2022-09-07T15:56:00.595Z,1008.63
2022-09-07T15:58:53.188Z,1008.67
2022-09-07T15:59:53.193Z,1008.65
2022-09-07T16:01:58.266Z,1008.67
2022-09-07T16:03:05.862Z,1008.63
2022-09-07T16:05:01.531Z,1008.62
2022-09-07T16:06:01.433Z,1008.65